sensor_id;sensor_type;location;lat;lon;timestamp;P1;durP1;ratioP1;P2;durP2;ratioP2
46777;SDS011;32536;47.128;8.746;2023-04-24T00:01:20;1.58;;;1.45;;
46777;SDS011;32536;47.128;8.746;2023-04-24T00:03:46;1.75;;;1.42;;
46777;SDS011;32536;47.128;8.746;2023-04-24T00:06:13;1.83;;;1.58;;
46777;SDS011;32536;47.128;8.746;2023-04-24T00:08:42;1.35;;;1.23;;
46777;SDS011;32536;47.128;8.746;2023-04-24T00:11:09;1.50;;;1.40;;
46777;SDS011;32536;47.128;8.746;2023-04-24T00:13:35;1.48;;;1.27;;
46777;SDS011;32536;47.128;8.746;2023-04-24T00:16:02;2.03;;;1.65;;
46777;SDS011;32536;47.128;8.746;2023-04-24T00:18:30;1.70;;;1.33;;
46777;SDS011;32536;47.128;8.746;2023-04-24T00:20:57;2.38;;;1.83;;
46777;SDS011;32536;47.128;8.746;2023-04-24T00:23:24;2.20;;;1.17;;
46777;SDS011;32536;47.128;8.746;2023-04-24T00:25:51;1.73;;;1.42;;
46777;SDS011;32536;47.128;8.746;2023-04-24T00:28:17;1.65;;;0.90;;
46777;SDS011;32536;47.128;8.746;2023-04-24T00:30:44;2.05;;;1.85;;
46777;SDS011;32536;47.128;8.746;2023-04-24T00:33:11;2.38;;;1.50;;
46777;SDS011;32536;47.128;8.746;2023-04-24T00:35:37;2.63;;;2.08;;
46777;SDS011;32536;47.128;8.746;2023-04-24T00:38:04;2.20;;;1.83;;
46777;SDS011;32536;47.128;8.746;2023-04-24T00:40:31;3.03;;;1.80;;
46777;SDS011;32536;47.128;8.746;2023-04-24T00:42:58;3.03;;;2.17;;
46777;SDS011;32536;47.128;8.746;2023-04-24T00:45:24;2.45;;;1.67;;
46777;SDS011;32536;47.128;8.746;2023-04-24T00:47:52;2.72;;;1.77;;
46777;SDS011;32536;47.128;8.746;2023-04-24T00:50:20;2.55;;;2.10;;
46777;SDS011;32536;47.128;8.746;2023-04-24T00:52:47;2.53;;;1.60;;
46777;SDS011;32536;47.128;8.746;2023-04-24T00:55:14;2.80;;;1.70;;
46777;SDS011;32536;47.128;8.746;2023-04-24T00:57:41;2.45;;;1.55;;
46777;SDS011;32536;47.128;8.746;2023-04-24T01:00:08;2.95;;;2.65;;
46777;SDS011;32536;47.128;8.746;2023-04-24T01:02:41;2.88;;;1.55;;
46777;SDS011;32536;47.128;8.746;2023-04-24T01:05:13;1.98;;;1.67;;
46777;SDS011;32536;47.128;8.746;2023-04-24T01:07:43;2.47;;;2.08;;
46777;SDS011;32536;47.128;8.746;2023-04-24T01:10:15;2.50;;;1.90;;
46777;SDS011;32536;47.128;8.746;2023-04-24T01:12:43;2.25;;;1.80;;
46777;SDS011;32536;47.128;8.746;2023-04-24T01:15:10;2.20;;;1.35;;
46777;SDS011;32536;47.128;8.746;2023-04-24T01:17:37;1.98;;;1.67;;
46777;SDS011;32536;47.128;8.746;2023-04-24T01:20:04;1.58;;;1.05;;
46777;SDS011;32536;47.128;8.746;2023-04-24T01:22:35;1.80;;;1.33;;
46777;SDS011;32536;47.128;8.746;2023-04-24T01:25:02;1.73;;;1.15;;
46777;SDS011;32536;47.128;8.746;2023-04-24T01:27:30;2.47;;;1.20;;
46777;SDS011;32536;47.128;8.746;2023-04-24T01:29:57;1.73;;;1.45;;
46777;SDS011;32536;47.128;8.746;2023-04-24T01:32:24;1.90;;;1.60;;
46777;SDS011;32536;47.128;8.746;2023-04-24T01:34:51;2.28;;;1.90;;
46777;SDS011;32536;47.128;8.746;2023-04-24T01:37:18;1.73;;;1.45;;
46777;SDS011;32536;47.128;8.746;2023-04-24T01:39:45;2.22;;;1.75;;
46777;SDS011;32536;47.128;8.746;2023-04-24T01:42:12;2.60;;;1.85;;
46777;SDS011;32536;47.128;8.746;2023-04-24T01:44:40;1.70;;;1.23;;
46777;SDS011;32536;47.128;8.746;2023-04-24T01:47:07;1.63;;;0.98;;
46777;SDS011;32536;47.128;8.746;2023-04-24T01:49:34;2.03;;;1.65;;
46777;SDS011;32536;47.128;8.746;2023-04-24T01:52:02;2.33;;;1.67;;
46777;SDS011;32536;47.128;8.746;2023-04-24T01:54:29;1.30;;;1.10;;
46777;SDS011;32536;47.128;8.746;2023-04-24T01:56:56;2.15;;;1.52;;
46777;SDS011;32536;47.128;8.746;2023-04-24T01:59:22;2.10;;;1.70;;
46777;SDS011;32536;47.128;8.746;2023-04-24T02:01:51;2.38;;;1.23;;
46777;SDS011;32536;47.128;8.746;2023-04-24T02:04:18;2.00;;;1.48;;
46777;SDS011;32536;47.128;8.746;2023-04-24T02:06:44;1.60;;;1.45;;
46777;SDS011;32536;47.128;8.746;2023-04-24T02:09:11;1.15;;;0.95;;
46777;SDS011;32536;47.128;8.746;2023-04-24T02:11:38;1.50;;;1.27;;
46777;SDS011;32536;47.128;8.746;2023-04-24T02:14:04;2.40;;;1.48;;
46777;SDS011;32536;47.128;8.746;2023-04-24T02:16:31;1.80;;;1.52;;
46777;SDS011;32536;47.128;8.746;2023-04-24T02:18:58;2.40;;;2.00;;
46777;SDS011;32536;47.128;8.746;2023-04-24T02:21:25;1.60;;;1.50;;
46777;SDS011;32536;47.128;8.746;2023-04-24T02:23:53;1.63;;;1.42;;
46777;SDS011;32536;47.128;8.746;2023-04-24T02:29:11;1.52;;;1.33;;
46777;SDS011;32536;47.128;8.746;2023-04-24T02:31:38;0.95;;;0.80;;
46777;SDS011;32536;47.128;8.746;2023-04-24T02:34:05;1.40;;;1.10;;
46777;SDS011;32536;47.128;8.746;2023-04-24T02:36:31;1.58;;;1.38;;
46777;SDS011;32536;47.128;8.746;2023-04-24T02:38:58;1.40;;;1.30;;
46777;SDS011;32536;47.128;8.746;2023-04-24T02:41:26;1.55;;;1.45;;
46777;SDS011;32536;47.128;8.746;2023-04-24T02:43:58;1.63;;;1.52;;
46777;SDS011;32536;47.128;8.746;2023-04-24T02:46:25;1.70;;;1.50;;
46777;SDS011;32536;47.128;8.746;2023-04-24T02:48:52;1.98;;;1.45;;
46777;SDS011;32536;47.128;8.746;2023-04-24T02:51:18;1.35;;;1.08;;
46777;SDS011;32536;47.128;8.746;2023-04-24T02:53:45;0.88;;;0.70;;
46777;SDS011;32536;47.128;8.746;2023-04-24T02:56:12;2.03;;;1.90;;
46777;SDS011;32536;47.128;8.746;2023-04-24T02:58:38;1.67;;;1.23;;
46777;SDS011;32536;47.128;8.746;2023-04-24T03:01:05;1.83;;;1.50;;
46777;SDS011;32536;47.128;8.746;2023-04-24T03:03:32;2.10;;;1.90;;
46777;SDS011;32536;47.128;8.746;2023-04-24T03:05:58;1.63;;;1.33;;
46777;SDS011;32536;47.128;8.746;2023-04-24T03:08:25;1.48;;;1.38;;
46777;SDS011;32536;47.128;8.746;2023-04-24T03:10:52;1.48;;;1.38;;
46777;SDS011;32536;47.128;8.746;2023-04-24T03:13:18;1.65;;;1.52;;
46777;SDS011;32536;47.128;8.746;2023-04-24T03:15:45;1.70;;;1.20;;
46777;SDS011;32536;47.128;8.746;2023-04-24T03:18:12;1.50;;;1.30;;
46777;SDS011;32536;47.128;8.746;2023-04-24T03:20:39;1.30;;;1.13;;
46777;SDS011;32536;47.128;8.746;2023-04-24T03:23:06;1.67;;;1.50;;
46777;SDS011;32536;47.128;8.746;2023-04-24T03:25:32;1.58;;;1.48;;
46777;SDS011;32536;47.128;8.746;2023-04-24T03:27:59;2.25;;;2.05;;
46777;SDS011;32536;47.128;8.746;2023-04-24T03:30:26;1.85;;;1.40;;
46777;SDS011;32536;47.128;8.746;2023-04-24T03:32:53;1.85;;;1.65;;
46777;SDS011;32536;47.128;8.746;2023-04-24T03:35:19;1.50;;;1.25;;
46777;SDS011;32536;47.128;8.746;2023-04-24T03:37:47;0.98;;;0.75;;
46777;SDS011;32536;47.128;8.746;2023-04-24T03:40:14;1.60;;;1.50;;
46777;SDS011;32536;47.128;8.746;2023-04-24T03:42:40;1.40;;;1.17;;
46777;SDS011;32536;47.128;8.746;2023-04-24T03:45:07;1.63;;;1.48;;
46777;SDS011;32536;47.128;8.746;2023-04-24T03:47:35;2.30;;;1.25;;
46777;SDS011;32536;47.128;8.746;2023-04-24T03:50:02;2.05;;;1.58;;
46777;SDS011;32536;47.128;8.746;2023-04-24T03:52:29;1.52;;;1.23;;
46777;SDS011;32536;47.128;8.746;2023-04-24T03:54:55;1.80;;;1.65;;
46777;SDS011;32536;47.128;8.746;2023-04-24T03:57:22;1.58;;;1.40;;
46777;SDS011;32536;47.128;8.746;2023-04-24T03:59:49;1.83;;;1.50;;
46777;SDS011;32536;47.128;8.746;2023-04-24T04:02:15;1.17;;;0.88;;
46777;SDS011;32536;47.128;8.746;2023-04-24T04:04:42;1.25;;;1.13;;
46777;SDS011;32536;47.128;8.746;2023-04-24T04:07:09;1.48;;;1.38;;
46777;SDS011;32536;47.128;8.746;2023-04-24T04:09:36;1.50;;;1.40;;
46777;SDS011;32536;47.128;8.746;2023-04-24T04:12:03;1.92;;;1.77;;
46777;SDS011;32536;47.128;8.746;2023-04-24T04:14:30;1.45;;;1.33;;
46777;SDS011;32536;47.128;8.746;2023-04-24T04:16:56;1.15;;;0.85;;
46777;SDS011;32536;47.128;8.746;2023-04-24T04:19:23;2.38;;;1.05;;
46777;SDS011;32536;47.128;8.746;2023-04-24T04:21:50;1.80;;;1.70;;
46777;SDS011;32536;47.128;8.746;2023-04-24T04:24:19;0.98;;;0.85;;
46777;SDS011;32536;47.128;8.746;2023-04-24T04:26:52;1.55;;;1.45;;
46777;SDS011;32536;47.128;8.746;2023-04-24T04:29:22;1.45;;;1.35;;
46777;SDS011;32536;47.128;8.746;2023-04-24T04:31:49;1.48;;;1.38;;
46777;SDS011;32536;47.128;8.746;2023-04-24T04:34:16;1.88;;;1.77;;
46777;SDS011;32536;47.128;8.746;2023-04-24T04:36:43;2.25;;;2.05;;
46777;SDS011;32536;47.128;8.746;2023-04-24T04:39:11;1.35;;;1.20;;
46777;SDS011;32536;47.128;8.746;2023-04-24T04:41:40;1.00;;;0.65;;
46777;SDS011;32536;47.128;8.746;2023-04-24T04:44:07;1.48;;;0.95;;
46777;SDS011;32536;47.128;8.746;2023-04-24T04:46:34;1.60;;;1.38;;
46777;SDS011;32536;47.128;8.746;2023-04-24T04:49:02;1.33;;;1.23;;
46777;SDS011;32536;47.128;8.746;2023-04-24T04:51:29;1.67;;;1.05;;
46777;SDS011;32536;47.128;8.746;2023-04-24T04:53:56;1.23;;;1.10;;
46777;SDS011;32536;47.128;8.746;2023-04-24T04:56:23;2.03;;;1.70;;
46777;SDS011;32536;47.128;8.746;2023-04-24T04:58:50;1.48;;;1.05;;
46777;SDS011;32536;47.128;8.746;2023-04-24T05:01:16;1.92;;;1.45;;
46777;SDS011;32536;47.128;8.746;2023-04-24T05:03:44;2.35;;;1.75;;
46777;SDS011;32536;47.128;8.746;2023-04-24T05:06:10;1.50;;;1.08;;
46777;SDS011;32536;47.128;8.746;2023-04-24T05:08:37;2.20;;;1.90;;
46777;SDS011;32536;47.128;8.746;2023-04-24T05:11:04;1.42;;;1.15;;
46777;SDS011;32536;47.128;8.746;2023-04-24T05:13:31;1.80;;;1.38;;
46777;SDS011;32536;47.128;8.746;2023-04-24T05:15:58;1.33;;;0.80;;
46777;SDS011;32536;47.128;8.746;2023-04-24T05:18:25;1.75;;;1.30;;
46777;SDS011;32536;47.128;8.746;2023-04-24T05:20:51;2.47;;;1.85;;
46777;SDS011;32536;47.128;8.746;2023-04-24T05:23:18;2.15;;;1.65;;
46777;SDS011;32536;47.128;8.746;2023-04-24T05:25:45;1.70;;;1.60;;
46777;SDS011;32536;47.128;8.746;2023-04-24T05:28:12;1.73;;;1.52;;
46777;SDS011;32536;47.128;8.746;2023-04-24T05:30:38;2.30;;;1.95;;
46777;SDS011;32536;47.128;8.746;2023-04-24T05:33:05;1.65;;;1.48;;
46777;SDS011;32536;47.128;8.746;2023-04-24T05:35:32;1.20;;;0.73;;
46777;SDS011;32536;47.128;8.746;2023-04-24T05:37:59;2.15;;;1.83;;
46777;SDS011;32536;47.128;8.746;2023-04-24T05:40:25;2.17;;;1.65;;
46777;SDS011;32536;47.128;8.746;2023-04-24T05:42:52;2.55;;;1.20;;
46777;SDS011;32536;47.128;8.746;2023-04-24T05:45:19;4.22;;;1.50;;
46777;SDS011;32536;47.128;8.746;2023-04-24T05:47:45;2.55;;;1.80;;
46777;SDS011;32536;47.128;8.746;2023-04-24T05:50:13;4.18;;;1.70;;
46777;SDS011;32536;47.128;8.746;2023-04-24T05:52:40;1.52;;;1.20;;
46777;SDS011;32536;47.128;8.746;2023-04-24T05:55:07;1.80;;;1.52;;
46777;SDS011;32536;47.128;8.746;2023-04-24T05:57:34;3.75;;;1.70;;
46777;SDS011;32536;47.128;8.746;2023-04-24T06:00:01;2.58;;;2.05;;
46777;SDS011;32536;47.128;8.746;2023-04-24T06:02:28;2.67;;;1.98;;
46777;SDS011;32536;47.128;8.746;2023-04-24T06:04:58;2.35;;;2.05;;
46777;SDS011;32536;47.128;8.746;2023-04-24T06:07:25;2.38;;;1.65;;
46777;SDS011;32536;47.128;8.746;2023-04-24T06:09:52;2.35;;;1.88;;
46777;SDS011;32536;47.128;8.746;2023-04-24T06:12:19;4.18;;;1.98;;
46777;SDS011;32536;47.128;8.746;2023-04-24T06:14:45;2.47;;;1.92;;
46777;SDS011;32536;47.128;8.746;2023-04-24T06:17:12;2.97;;;1.60;;
46777;SDS011;32536;47.128;8.746;2023-04-24T06:19:39;2.65;;;2.08;;
46777;SDS011;32536;47.128;8.746;2023-04-24T06:22:06;2.55;;;1.80;;
46777;SDS011;32536;47.128;8.746;2023-04-24T06:24:33;2.50;;;1.92;;
46777;SDS011;32536;47.128;8.746;2023-04-24T06:27:00;2.25;;;1.85;;
46777;SDS011;32536;47.128;8.746;2023-04-24T06:29:27;2.17;;;1.60;;
46777;SDS011;32536;47.128;8.746;2023-04-24T06:31:54;2.58;;;2.13;;
46777;SDS011;32536;47.128;8.746;2023-04-24T06:34:21;2.92;;;1.75;;
46777;SDS011;32536;47.128;8.746;2023-04-24T06:36:47;3.50;;;2.20;;
46777;SDS011;32536;47.128;8.746;2023-04-24T06:39:14;3.60;;;2.13;;
46777;SDS011;32536;47.128;8.746;2023-04-24T06:41:41;2.20;;;1.20;;
46777;SDS011;32536;47.128;8.746;2023-04-24T06:44:07;2.25;;;1.70;;
46777;SDS011;32536;47.128;8.746;2023-04-24T06:46:34;3.05;;;1.95;;
46777;SDS011;32536;47.128;8.746;2023-04-24T06:49:01;2.95;;;1.80;;
46777;SDS011;32536;47.128;8.746;2023-04-24T06:51:28;2.60;;;1.55;;
46777;SDS011;32536;47.128;8.746;2023-04-24T06:53:54;3.15;;;1.95;;
46777;SDS011;32536;47.128;8.746;2023-04-24T06:56:24;2.78;;;1.30;;
46777;SDS011;32536;47.128;8.746;2023-04-24T06:58:51;2.90;;;2.03;;
46777;SDS011;32536;47.128;8.746;2023-04-24T07:01:18;2.90;;;2.08;;
46777;SDS011;32536;47.128;8.746;2023-04-24T07:03:45;2.30;;;1.50;;
46777;SDS011;32536;47.128;8.746;2023-04-24T07:06:12;3.05;;;2.03;;
46777;SDS011;32536;47.128;8.746;2023-04-24T07:08:39;2.53;;;1.15;;
46777;SDS011;32536;47.128;8.746;2023-04-24T07:11:07;2.67;;;1.88;;
46777;SDS011;32536;47.128;8.746;2023-04-24T07:13:34;3.30;;;2.17;;
46777;SDS011;32536;47.128;8.746;2023-04-24T07:16:01;5.97;;;2.50;;
46777;SDS011;32536;47.128;8.746;2023-04-24T07:18:27;2.78;;;2.42;;
46777;SDS011;32536;47.128;8.746;2023-04-24T07:20:54;3.05;;;2.08;;
46777;SDS011;32536;47.128;8.746;2023-04-24T07:23:21;4.07;;;2.25;;
46777;SDS011;32536;47.128;8.746;2023-04-24T07:25:47;3.00;;;2.00;;
46777;SDS011;32536;47.128;8.746;2023-04-24T07:28:14;2.67;;;1.50;;
46777;SDS011;32536;47.128;8.746;2023-04-24T07:30:41;2.20;;;1.27;;
46777;SDS011;32536;47.128;8.746;2023-04-24T07:33:07;4.35;;;2.13;;
46777;SDS011;32536;47.128;8.746;2023-04-24T07:35:36;3.47;;;2.20;;
46777;SDS011;32536;47.128;8.746;2023-04-24T07:38:03;3.25;;;1.95;;
46777;SDS011;32536;47.128;8.746;2023-04-24T07:40:30;3.88;;;1.42;;
46777;SDS011;32536;47.128;8.746;2023-04-24T07:42:57;3.75;;;2.13;;
46777;SDS011;32536;47.128;8.746;2023-04-24T07:45:24;2.53;;;1.48;;
46777;SDS011;32536;47.128;8.746;2023-04-24T07:47:53;3.00;;;1.10;;
46777;SDS011;32536;47.128;8.746;2023-04-24T07:50:20;2.92;;;1.40;;
46777;SDS011;32536;47.128;8.746;2023-04-24T07:52:47;2.53;;;1.45;;
46777;SDS011;32536;47.128;8.746;2023-04-24T07:55:14;3.85;;;2.00;;
46777;SDS011;32536;47.128;8.746;2023-04-24T07:57:41;2.92;;;2.33;;
46777;SDS011;32536;47.128;8.746;2023-04-24T08:00:08;2.50;;;2.22;;
46777;SDS011;32536;47.128;8.746;2023-04-24T08:02:35;2.97;;;1.70;;
46777;SDS011;32536;47.128;8.746;2023-04-24T08:05:02;2.58;;;1.80;;
46777;SDS011;32536;47.128;8.746;2023-04-24T08:07:29;2.95;;;1.48;;
46777;SDS011;32536;47.128;8.746;2023-04-24T08:09:55;2.42;;;1.67;;
46777;SDS011;32536;47.128;8.746;2023-04-24T08:12:22;3.97;;;2.38;;
46777;SDS011;32536;47.128;8.746;2023-04-24T08:14:49;2.47;;;1.77;;
46777;SDS011;32536;47.128;8.746;2023-04-24T08:17:16;2.65;;;1.95;;
46777;SDS011;32536;47.128;8.746;2023-04-24T08:19:43;2.45;;;1.63;;
46777;SDS011;32536;47.128;8.746;2023-04-24T08:22:16;4.40;;;2.17;;
46777;SDS011;32536;47.128;8.746;2023-04-24T08:24:43;3.13;;;2.15;;
46777;SDS011;32536;47.128;8.746;2023-04-24T08:27:10;2.97;;;1.92;;
46777;SDS011;32536;47.128;8.746;2023-04-24T08:29:37;3.97;;;1.20;;
46777;SDS011;32536;47.128;8.746;2023-04-24T08:32:03;3.17;;;2.20;;
46777;SDS011;32536;47.128;8.746;2023-04-24T08:34:30;3.53;;;2.30;;
46777;SDS011;32536;47.128;8.746;2023-04-24T08:36:57;3.45;;;1.98;;
46777;SDS011;32536;47.128;8.746;2023-04-24T08:39:23;2.55;;;1.80;;
46777;SDS011;32536;47.128;8.746;2023-04-24T08:41:50;3.47;;;2.03;;
46777;SDS011;32536;47.128;8.746;2023-04-24T08:44:19;4.50;;;2.67;;
46777;SDS011;32536;47.128;8.746;2023-04-24T08:46:46;3.42;;;2.15;;
46777;SDS011;32536;47.128;8.746;2023-04-24T08:49:14;3.10;;;2.03;;
46777;SDS011;32536;47.128;8.746;2023-04-24T08:51:42;3.72;;;1.95;;
46777;SDS011;32536;47.128;8.746;2023-04-24T08:54:11;4.25;;;2.10;;
46777;SDS011;32536;47.128;8.746;2023-04-24T08:56:39;3.78;;;2.55;;
46777;SDS011;32536;47.128;8.746;2023-04-24T08:59:09;2.30;;;1.40;;
46777;SDS011;32536;47.128;8.746;2023-04-24T09:01:37;4.40;;;2.20;;
46777;SDS011;32536;47.128;8.746;2023-04-24T09:04:05;3.72;;;2.15;;
46777;SDS011;32536;47.128;8.746;2023-04-24T09:06:38;4.05;;;2.45;;
46777;SDS011;32536;47.128;8.746;2023-04-24T09:09:05;3.67;;;2.08;;
46777;SDS011;32536;47.128;8.746;2023-04-24T09:11:32;5.60;;;2.20;;
46777;SDS011;32536;47.128;8.746;2023-04-24T09:13:59;4.28;;;2.05;;
46777;SDS011;32536;47.128;8.746;2023-04-24T09:16:27;3.53;;;2.05;;
46777;SDS011;32536;47.128;8.746;2023-04-24T09:18:53;3.30;;;2.58;;
46777;SDS011;32536;47.128;8.746;2023-04-24T09:21:22;2.80;;;2.03;;
46777;SDS011;32536;47.128;8.746;2023-04-24T09:23:59;2.65;;;1.40;;
46777;SDS011;32536;47.128;8.746;2023-04-24T09:26:29;3.38;;;2.03;;
46777;SDS011;32536;47.128;8.746;2023-04-24T09:28:58;2.28;;;2.03;;
46777;SDS011;32536;47.128;8.746;2023-04-24T09:31:27;2.28;;;1.58;;
46777;SDS011;32536;47.128;8.746;2023-04-24T09:33:56;4.03;;;1.67;;
46777;SDS011;32536;47.128;8.746;2023-04-24T09:36:32;2.65;;;1.98;;
46777;SDS011;32536;47.128;8.746;2023-04-24T09:39:05;2.80;;;1.92;;
46777;SDS011;32536;47.128;8.746;2023-04-24T09:41:49;3.58;;;2.10;;
46777;SDS011;32536;47.128;8.746;2023-04-24T09:44:19;2.67;;;1.90;;
46777;SDS011;32536;47.128;8.746;2023-04-24T09:46:54;6.00;;;3.30;;
46777;SDS011;32536;47.128;8.746;2023-04-24T09:49:26;2.40;;;1.80;;
46777;SDS011;32536;47.128;8.746;2023-04-24T09:52:04;3.38;;;1.70;;
46777;SDS011;32536;47.128;8.746;2023-04-24T09:54:33;4.13;;;1.70;;
46777;SDS011;32536;47.128;8.746;2023-04-24T09:57:02;5.00;;;1.38;;
46777;SDS011;32536;47.128;8.746;2023-04-24T09:59:29;3.28;;;2.47;;
46777;SDS011;32536;47.128;8.746;2023-04-24T10:01:56;2.55;;;1.95;;
46777;SDS011;32536;47.128;8.746;2023-04-24T10:04:25;4.97;;;2.30;;
46777;SDS011;32536;47.128;8.746;2023-04-24T10:06:55;3.75;;;2.35;;
46777;SDS011;32536;47.128;8.746;2023-04-24T10:09:23;5.72;;;2.97;;
46777;SDS011;32536;47.128;8.746;2023-04-24T10:11:52;5.32;;;2.85;;
46777;SDS011;32536;47.128;8.746;2023-04-24T10:14:21;4.38;;;2.38;;
46777;SDS011;32536;47.128;8.746;2023-04-24T10:16:50;4.55;;;2.42;;
46777;SDS011;32536;47.128;8.746;2023-04-24T10:19:25;4.45;;;2.97;;
46777;SDS011;32536;47.128;8.746;2023-04-24T10:21:52;4.15;;;1.77;;
46777;SDS011;32536;47.128;8.746;2023-04-24T10:24:21;3.60;;;2.30;;
46777;SDS011;32536;47.128;8.746;2023-04-24T10:29:42;3.70;;;2.17;;
46777;SDS011;32536;47.128;8.746;2023-04-24T10:32:10;3.05;;;2.55;;
46777;SDS011;32536;47.128;8.746;2023-04-24T10:34:37;4.07;;;2.47;;
46777;SDS011;32536;47.128;8.746;2023-04-24T10:37:03;3.22;;;2.22;;
46777;SDS011;32536;47.128;8.746;2023-04-24T10:39:30;4.10;;;1.95;;
46777;SDS011;32536;47.128;8.746;2023-04-24T10:41:59;4.72;;;2.42;;
46777;SDS011;32536;47.128;8.746;2023-04-24T10:44:27;3.25;;;1.55;;
46777;SDS011;32536;47.128;8.746;2023-04-24T10:47:02;2.47;;;2.00;;
46777;SDS011;32536;47.128;8.746;2023-04-24T10:49:30;3.10;;;2.30;;
46777;SDS011;32536;47.128;8.746;2023-04-24T10:52:02;4.72;;;3.00;;
46777;SDS011;32536;47.128;8.746;2023-04-24T10:54:36;8.18;;;3.20;;
46777;SDS011;32536;47.128;8.746;2023-04-24T10:59:48;6.32;;;3.03;;
46777;SDS011;32536;47.128;8.746;2023-04-24T11:02:39;5.18;;;3.35;;
46777;SDS011;32536;47.128;8.746;2023-04-24T11:05:14;6.60;;;2.75;;
46777;SDS011;32536;47.128;8.746;2023-04-24T11:10:54;4.03;;;2.70;;
46777;SDS011;32536;47.128;8.746;2023-04-24T11:19:04;4.38;;;2.42;;
46777;SDS011;32536;47.128;8.746;2023-04-24T11:27:18;5.43;;;2.40;;
46777;SDS011;32536;47.128;8.746;2023-04-24T11:32:24;3.38;;;2.25;;
46777;SDS011;32536;47.128;8.746;2023-04-24T11:34:55;4.45;;;2.55;;
46777;SDS011;32536;47.128;8.746;2023-04-24T11:37:37;3.78;;;2.53;;
46777;SDS011;32536;47.128;8.746;2023-04-24T11:42:37;3.22;;;2.15;;
46777;SDS011;32536;47.128;8.746;2023-04-24T11:45:10;3.45;;;2.58;;
46777;SDS011;32536;47.128;8.746;2023-04-24T11:47:39;4.07;;;2.22;;
46777;SDS011;32536;47.128;8.746;2023-04-24T11:50:07;3.50;;;2.42;;
46777;SDS011;32536;47.128;8.746;2023-04-24T11:52:41;3.60;;;2.20;;
46777;SDS011;32536;47.128;8.746;2023-04-24T11:57:43;3.33;;;2.17;;
46777;SDS011;32536;47.128;8.746;2023-04-24T12:00:22;3.50;;;2.78;;
46777;SDS011;32536;47.128;8.746;2023-04-24T12:03:04;4.07;;;2.70;;
46777;SDS011;32536;47.128;8.746;2023-04-24T12:05:32;3.72;;;2.22;;
46777;SDS011;32536;47.128;8.746;2023-04-24T12:08:00;1.88;;;0.95;;
46777;SDS011;32536;47.128;8.746;2023-04-24T12:10:28;4.10;;;2.38;;
46777;SDS011;32536;47.128;8.746;2023-04-24T12:12:56;3.88;;;2.67;;
46777;SDS011;32536;47.128;8.746;2023-04-24T12:15:25;2.90;;;2.28;;
46777;SDS011;32536;47.128;8.746;2023-04-24T12:17:53;3.88;;;2.55;;
46777;SDS011;32536;47.128;8.746;2023-04-24T12:20:26;3.00;;;1.63;;
46777;SDS011;32536;47.128;8.746;2023-04-24T12:22:58;6.10;;;2.08;;
46777;SDS011;32536;47.128;8.746;2023-04-24T12:25:28;5.30;;;2.60;;
46777;SDS011;32536;47.128;8.746;2023-04-24T12:30:32;3.97;;;2.33;;
46777;SDS011;32536;47.128;8.746;2023-04-24T12:33:17;3.15;;;1.83;;
46777;SDS011;32536;47.128;8.746;2023-04-24T12:35:45;5.93;;;2.70;;
46777;SDS011;32536;47.128;8.746;2023-04-24T12:38:13;3.60;;;2.40;;
46777;SDS011;32536;47.128;8.746;2023-04-24T12:40:41;4.05;;;2.30;;
46777;SDS011;32536;47.128;8.746;2023-04-24T12:43:18;4.57;;;1.98;;
46777;SDS011;32536;47.128;8.746;2023-04-24T12:45:47;2.88;;;1.88;;
46777;SDS011;32536;47.128;8.746;2023-04-24T12:48:14;4.65;;;2.22;;
46777;SDS011;32536;47.128;8.746;2023-04-24T12:50:41;3.58;;;2.33;;
46777;SDS011;32536;47.128;8.746;2023-04-24T12:53:09;3.63;;;2.33;;
46777;SDS011;32536;47.128;8.746;2023-04-24T12:55:36;3.35;;;2.25;;
46777;SDS011;32536;47.128;8.746;2023-04-24T12:58:03;2.90;;;2.08;;
46777;SDS011;32536;47.128;8.746;2023-04-24T13:00:30;3.75;;;2.50;;
46777;SDS011;32536;47.128;8.746;2023-04-24T13:02:56;2.90;;;2.03;;
46777;SDS011;32536;47.128;8.746;2023-04-24T13:05:23;3.38;;;2.35;;
46777;SDS011;32536;47.128;8.746;2023-04-24T13:07:50;5.03;;;2.00;;
46777;SDS011;32536;47.128;8.746;2023-04-24T13:10:17;4.38;;;2.42;;
46777;SDS011;32536;47.128;8.746;2023-04-24T13:12:44;3.88;;;2.03;;
46777;SDS011;32536;47.128;8.746;2023-04-24T13:15:11;3.42;;;1.35;;
46777;SDS011;32536;47.128;8.746;2023-04-24T13:17:39;4.15;;;2.17;;
46777;SDS011;32536;47.128;8.746;2023-04-24T13:20:06;3.78;;;2.03;;
46777;SDS011;32536;47.128;8.746;2023-04-24T13:22:33;2.58;;;1.63;;
46777;SDS011;32536;47.128;8.746;2023-04-24T13:24:59;3.08;;;1.88;;
46777;SDS011;32536;47.128;8.746;2023-04-24T13:27:26;5.40;;;2.45;;
46777;SDS011;32536;47.128;8.746;2023-04-24T13:29:53;2.85;;;1.33;;
46777;SDS011;32536;47.128;8.746;2023-04-24T13:32:20;3.42;;;2.20;;
46777;SDS011;32536;47.128;8.746;2023-04-24T13:34:46;3.42;;;1.90;;
46777;SDS011;32536;47.128;8.746;2023-04-24T13:37:13;3.45;;;2.15;;
46777;SDS011;32536;47.128;8.746;2023-04-24T13:39:40;3.38;;;2.15;;
46777;SDS011;32536;47.128;8.746;2023-04-24T13:42:07;3.63;;;2.33;;
46777;SDS011;32536;47.128;8.746;2023-04-24T13:44:34;4.82;;;2.83;;
46777;SDS011;32536;47.128;8.746;2023-04-24T13:47:00;3.20;;;1.80;;
46777;SDS011;32536;47.128;8.746;2023-04-24T13:49:27;3.83;;;1.95;;
46777;SDS011;32536;47.128;8.746;2023-04-24T13:51:54;4.57;;;2.15;;
46777;SDS011;32536;47.128;8.746;2023-04-24T13:54:22;3.85;;;2.05;;
46777;SDS011;32536;47.128;8.746;2023-04-24T13:56:51;4.75;;;2.20;;
46777;SDS011;32536;47.128;8.746;2023-04-24T13:59:19;3.83;;;2.40;;
46777;SDS011;32536;47.128;8.746;2023-04-24T14:01:47;3.60;;;2.88;;
46777;SDS011;32536;47.128;8.746;2023-04-24T14:04:13;4.07;;;1.90;;
46777;SDS011;32536;47.128;8.746;2023-04-24T14:06:40;3.78;;;2.10;;
46777;SDS011;32536;47.128;8.746;2023-04-24T14:09:07;3.70;;;2.22;;
46777;SDS011;32536;47.128;8.746;2023-04-24T14:11:34;3.03;;;2.00;;
46777;SDS011;32536;47.128;8.746;2023-04-24T14:14:01;2.97;;;2.20;;
46777;SDS011;32536;47.128;8.746;2023-04-24T14:16:28;2.97;;;2.15;;
46777;SDS011;32536;47.128;8.746;2023-04-24T14:18:56;3.72;;;2.45;;
46777;SDS011;32536;47.128;8.746;2023-04-24T14:21:22;4.15;;;2.00;;
46777;SDS011;32536;47.128;8.746;2023-04-24T14:23:49;2.67;;;1.55;;
46777;SDS011;32536;47.128;8.746;2023-04-24T14:26:16;4.35;;;2.00;;
46777;SDS011;32536;47.128;8.746;2023-04-24T14:28:43;2.72;;;1.60;;
46777;SDS011;32536;47.128;8.746;2023-04-24T14:31:09;5.07;;;2.35;;
46777;SDS011;32536;47.128;8.746;2023-04-24T14:33:36;2.75;;;1.65;;
46777;SDS011;32536;47.128;8.746;2023-04-24T14:36:03;3.65;;;2.17;;
46777;SDS011;32536;47.128;8.746;2023-04-24T14:38:31;2.72;;;1.58;;
46777;SDS011;32536;47.128;8.746;2023-04-24T14:40:57;3.22;;;2.17;;
46777;SDS011;32536;47.128;8.746;2023-04-24T14:43:24;3.90;;;2.53;;
46777;SDS011;32536;47.128;8.746;2023-04-24T14:45:51;2.40;;;1.20;;
46777;SDS011;32536;47.128;8.746;2023-04-24T14:48:17;4.07;;;2.30;;
46777;SDS011;32536;47.128;8.746;2023-04-24T14:50:44;3.80;;;2.25;;
46777;SDS011;32536;47.128;8.746;2023-04-24T14:53:11;4.25;;;2.72;;
46777;SDS011;32536;47.128;8.746;2023-04-24T14:55:38;2.97;;;2.25;;
46777;SDS011;32536;47.128;8.746;2023-04-24T14:58:04;5.45;;;2.25;;
46777;SDS011;32536;47.128;8.746;2023-04-24T15:00:31;4.00;;;1.90;;
46777;SDS011;32536;47.128;8.746;2023-04-24T15:02:58;4.00;;;2.28;;
46777;SDS011;32536;47.128;8.746;2023-04-24T15:05:25;3.13;;;2.03;;
46777;SDS011;32536;47.128;8.746;2023-04-24T15:07:52;3.13;;;1.85;;
46777;SDS011;32536;47.128;8.746;2023-04-24T15:10:19;4.40;;;1.65;;
46777;SDS011;32536;47.128;8.746;2023-04-24T15:12:48;2.85;;;1.45;;
46777;SDS011;32536;47.128;8.746;2023-04-24T15:15:15;2.83;;;1.83;;
46777;SDS011;32536;47.128;8.746;2023-04-24T15:17:42;4.88;;;1.50;;
46777;SDS011;32536;47.128;8.746;2023-04-24T15:20:09;4.25;;;2.00;;
46777;SDS011;32536;47.128;8.746;2023-04-24T15:22:35;2.45;;;1.58;;
46777;SDS011;32536;47.128;8.746;2023-04-24T15:25:02;2.05;;;1.45;;